createdAt,value
2023-02-17T00:01:33.376Z,1.37
2023-02-17T00:04:00.920Z,1.18
2023-02-17T00:06:30.317Z,1.24
2023-02-17T00:08:58.132Z,1.19
2023-02-17T00:11:25.807Z,1.21
2023-02-17T00:13:55.259Z,1.19
2023-02-17T00:16:25.194Z,1.08
2023-02-17T00:19:00.644Z,1.08
2023-02-17T00:21:32.817Z,0.97
2023-02-17T00:24:00.244Z,1.04
2023-02-17T00:26:27.502Z,0.96
2023-02-17T00:28:54.818Z,0.90
2023-02-17T00:31:23.315Z,0.96
2023-02-17T00:33:54.641Z,0.96
2023-02-17T00:36:21.746Z,0.98
2023-02-17T00:38:49.583Z,0.93
2023-02-17T00:41:19.908Z,0.83
2023-02-17T00:43:48.039Z,0.77
2023-02-17T00:46:17.151Z,0.76
2023-02-17T00:48:45.639Z,0.68
2023-02-17T00:51:12.886Z,0.62
2023-02-17T00:53:40.028Z,0.61
2023-02-17T00:56:07.809Z,0.67
2023-02-17T00:58:35.833Z,0.58
2023-02-17T01:01:03.378Z,0.57
2023-02-17T01:03:31.314Z,0.58
2023-02-17T01:05:58.462Z,0.49
2023-02-17T01:08:26.051Z,0.46
2023-02-17T01:10:53.693Z,0.38
2023-02-17T01:13:23.423Z,0.35
2023-02-17T01:15:52.800Z,0.38
2023-02-17T01:18:23.975Z,0.38
2023-02-17T01:20:51.604Z,0.28
2023-02-17T01:23:18.483Z,0.21
2023-02-17T01:25:47.095Z,0.24
2023-02-17T01:28:19.739Z,0.20
2023-02-17T01:30:47.406Z,0.14
2023-02-17T01:33:14.409Z,0.24
2023-02-17T01:35:41.787Z,0.23
2023-02-17T01:38:08.525Z,0.22
2023-02-17T01:40:35.366Z,0.17
2023-02-17T01:43:02.148Z,0.25
2023-02-17T01:45:37.185Z,0.25
2023-02-17T01:48:14.540Z,0.24
2023-02-17T01:50:49.206Z,0.31
2023-02-17T01:53:22.032Z,0.37
2023-02-17T01:55:49.944Z,0.28
2023-02-17T01:58:20.135Z,0.25
2023-02-17T02:00:49.799Z,0.16
2023-02-17T02:03:19.899Z,0.20
2023-02-17T02:05:47.413Z,0.19
2023-02-17T02:08:15.276Z,0.18
2023-02-17T02:10:42.222Z,0.14
2023-02-17T02:13:09.503Z,0.13
2023-02-17T02:15:43.412Z,0.13
2023-02-17T02:18:35.266Z,0.11
2023-02-17T02:21:08.077Z,0.06
2023-02-17T02:24:00.339Z,0.02
2023-02-17T02:26:45.499Z,-0.07
2023-02-17T02:29:42.982Z,-0.12
2023-02-17T02:32:40.381Z,-0.18
2023-02-17T02:35:34.727Z,-0.16
2023-02-17T02:38:30.410Z,-0.27
2023-02-17T02:41:05.198Z,-0.34
2023-02-17T02:43:32.677Z,-0.27
2023-02-17T02:45:59.537Z,-0.27
2023-02-17T02:48:27.562Z,-0.31
2023-02-17T02:51:12.595Z,-0.31
2023-02-17T02:54:05.764Z,-0.31
2023-02-17T02:56:52.692Z,-0.30
2023-02-17T02:59:42.823Z,-0.29
2023-02-17T03:02:29.965Z,-0.37
2023-02-17T03:05:09.480Z,-0.30
2023-02-17T03:08:05.799Z,-0.37
2023-02-17T03:10:32.823Z,-0.37
2023-02-17T03:13:02.207Z,-0.39
2023-02-17T03:15:33.742Z,-0.32
2023-02-17T03:18:02.757Z,-0.34
2023-02-17T03:20:34.793Z,-0.38
2023-02-17T03:23:03.400Z,-0.46
2023-02-17T03:25:30.411Z,-0.32
2023-02-17T03:27:57.499Z,-0.29
2023-02-17T03:30:24.982Z,-0.25
2023-02-17T03:32:52.102Z,-0.20
2023-02-17T03:35:20.681Z,-0.25
2023-02-17T03:37:48.254Z,-0.17
2023-02-17T03:40:15.118Z,-0.24
2023-02-17T03:42:42.182Z,-0.27
2023-02-17T03:45:09.445Z,-0.24
2023-02-17T03:47:36.586Z,-0.17
2023-02-17T03:50:03.866Z,-0.12
2023-02-17T03:52:30.800Z,0.00
2023-02-17T03:54:57.564Z,-0.04
2023-02-17T03:57:24.445Z,-0.08
2023-02-17T03:59:51.233Z,-0.01
2023-02-17T04:02:18.041Z,0.03
2023-02-17T04:04:44.958Z,-0.05
2023-02-17T04:07:11.976Z,0.10
2023-02-17T04:09:38.741Z,0.22
2023-02-17T04:12:05.885Z,0.26
2023-02-17T04:14:32.711Z,0.37
2023-02-17T04:16:59.672Z,0.53
2023-02-17T04:19:26.532Z,0.62
2023-02-17T04:21:53.547Z,0.52
2023-02-17T04:24:20.320Z,0.65
2023-02-17T04:26:47.276Z,0.66
2023-02-17T04:29:14.260Z,0.52
2023-02-17T04:31:41.239Z,0.70
2023-02-17T04:34:08.168Z,0.76
2023-02-17T04:36:35.438Z,0.79
2023-02-17T04:39:02.293Z,0.73
2023-02-17T04:41:29.154Z,0.63
2023-02-17T04:43:56.085Z,0.68
2023-02-17T04:46:23.320Z,0.71
2023-02-17T04:48:50.079Z,0.84
2023-02-17T04:51:17.132Z,0.80
2023-02-17T04:53:43.975Z,0.76
2023-02-17T04:56:11.188Z,0.75
2023-02-17T04:58:38.028Z,0.61
2023-02-17T05:01:05.204Z,0.72
2023-02-17T05:03:32.158Z,0.70
2023-02-17T05:05:59.059Z,0.69
2023-02-17T05:08:25.934Z,0.73
2023-02-17T05:10:53.323Z,0.69
2023-02-17T05:13:20.424Z,0.61
2023-02-17T05:15:47.662Z,0.64
2023-02-17T05:18:14.534Z,0.53
2023-02-17T05:20:42.227Z,0.57
2023-02-17T05:23:09.014Z,0.64
2023-02-17T05:25:35.864Z,0.62
2023-02-17T05:28:02.776Z,0.55
2023-02-17T05:30:29.730Z,0.43
2023-02-17T05:32:56.684Z,0.44
2023-02-17T05:35:24.802Z,0.54
2023-02-17T05:37:51.574Z,0.50
2023-02-17T05:40:18.691Z,0.53
2023-02-17T05:42:45.572Z,0.54
2023-02-17T05:45:12.714Z,0.55
2023-02-17T05:47:39.509Z,0.54
2023-02-17T05:50:07.129Z,0.61
2023-02-17T05:52:34.080Z,0.54
2023-02-17T05:55:01.109Z,0.62
2023-02-17T05:57:27.905Z,0.69
2023-02-17T05:59:55.024Z,0.59
2023-02-17T06:02:22.029Z,0.70
2023-02-17T06:04:49.090Z,0.65
2023-02-17T06:07:16.029Z,0.81
2023-02-17T06:09:43.178Z,0.85
2023-02-17T06:12:10.016Z,1.02
2023-02-17T06:14:36.998Z,1.23
2023-02-17T06:17:04.136Z,1.40
2023-02-17T06:19:31.465Z,1.65
2023-02-17T06:21:58.280Z,1.86
2023-02-17T06:24:25.634Z,2.02
2023-02-17T06:26:52.563Z,2.06
2023-02-17T06:29:19.535Z,2.26
2023-02-17T06:31:49.663Z,2.28
2023-02-17T06:34:16.706Z,2.41
2023-02-17T06:36:43.543Z,2.59
2023-02-17T06:39:10.577Z,2.78
2023-02-17T06:41:37.529Z,3.08
2023-02-17T06:44:04.878Z,3.20
2023-02-17T06:46:31.856Z,3.35
2023-02-17T06:49:00.159Z,3.49
2023-02-17T06:51:27.886Z,3.70
2023-02-17T06:53:55.633Z,3.86
2023-02-17T06:56:22.634Z,3.95
2023-02-17T06:58:49.581Z,4.16
2023-02-17T07:01:18.416Z,4.27
2023-02-17T07:03:45.655Z,4.33
2023-02-17T07:06:12.591Z,4.61
2023-02-17T07:08:39.441Z,4.81
2023-02-17T07:11:11.818Z,4.98
2023-02-17T07:13:38.878Z,5.27
2023-02-17T07:16:06.506Z,5.52
2023-02-17T07:18:33.977Z,5.81
2023-02-17T07:21:01.043Z,6.20
2023-02-17T07:23:27.910Z,6.34
2023-02-17T07:25:54.698Z,6.59
2023-02-17T07:28:21.607Z,6.75
2023-02-17T07:30:48.519Z,6.99
2023-02-17T07:33:15.472Z,7.23
2023-02-17T07:35:46.096Z,7.37
2023-02-17T07:38:13.553Z,7.48
2023-02-17T07:40:40.503Z,7.59
2023-02-17T07:43:07.431Z,7.54
2023-02-17T07:45:34.725Z,7.90
2023-02-17T07:48:01.651Z,7.92
2023-02-17T07:50:28.704Z,7.88
2023-02-17T07:52:55.758Z,7.85
2023-02-17T07:55:22.652Z,7.95
2023-02-17T07:57:49.817Z,7.96
2023-02-17T08:00:17.394Z,8.12
2023-02-17T08:02:44.498Z,8.17
2023-02-17T08:05:11.767Z,8.13
2023-02-17T08:07:38.724Z,8.28
2023-02-17T08:10:24.905Z,8.31
2023-02-17T08:13:10.408Z,8.47
2023-02-17T08:15:37.653Z,8.54
2023-02-17T08:18:06.516Z,8.62
2023-02-17T08:20:35.209Z,8.80
2023-02-17T08:23:03.721Z,8.78
2023-02-17T08:25:35.670Z,8.99
2023-02-17T08:28:04.953Z,9.08
2023-02-17T08:30:32.172Z,9.17
2023-02-17T08:32:59.869Z,9.19
2023-02-17T08:35:28.235Z,9.10
2023-02-17T08:37:55.581Z,9.32
2023-02-17T08:40:23.010Z,9.31
2023-02-17T08:42:50.042Z,9.39
2023-02-17T08:45:17.307Z,9.34
2023-02-17T08:47:44.177Z,9.32
2023-02-17T08:50:16.426Z,9.34
2023-02-17T08:52:43.286Z,9.49
2023-02-17T08:55:10.595Z,9.56
2023-02-17T08:57:37.492Z,9.50
2023-02-17T09:00:08.639Z,9.50
2023-02-17T09:02:37.604Z,9.49
2023-02-17T09:05:06.087Z,9.57
2023-02-17T09:07:32.990Z,9.68
2023-02-17T09:10:01.025Z,9.63
2023-02-17T09:12:27.886Z,9.73
2023-02-17T09:14:54.990Z,9.72
2023-02-17T09:17:21.980Z,9.68
2023-02-17T09:19:49.026Z,9.69
2023-02-17T09:22:30.833Z,9.85
2023-02-17T09:24:58.688Z,9.95
2023-02-17T09:27:25.716Z,9.97
2023-02-17T09:29:52.665Z,10.05
2023-02-17T09:32:20.463Z,10.16
2023-02-17T09:34:53.320Z,10.25
2023-02-17T09:37:21.984Z,10.47
2023-02-17T09:39:49.139Z,10.39
2023-02-17T09:42:25.700Z,10.44
2023-02-17T09:45:18.452Z,10.33
2023-02-17T09:47:50.781Z,10.44
2023-02-17T09:50:21.871Z,10.61
2023-02-17T09:53:33.716Z,10.57
2023-02-17T09:56:03.094Z,10.83
2023-02-17T09:58:30.034Z,10.83
2023-02-17T10:01:00.636Z,10.92
2023-02-17T10:03:37.689Z,10.94
2023-02-17T10:06:13.994Z,11.23
2023-02-17T10:09:13.019Z,11.09
2023-02-17T10:11:44.219Z,11.18
2023-02-17T10:14:33.110Z,11.32
2023-02-17T10:17:17.668Z,11.41
2023-02-17T10:19:54.905Z,11.41
2023-02-17T10:22:24.445Z,11.53
2023-02-17T10:24:51.684Z,11.61
2023-02-17T10:27:35.732Z,11.48
2023-02-17T10:30:20.310Z,11.66
2023-02-17T10:33:15.245Z,11.83
2023-02-17T10:35:56.148Z,11.92
2023-02-17T10:39:07.743Z,11.99
2023-02-17T10:41:38.212Z,11.97
2023-02-17T10:44:15.386Z,12.27
2023-02-17T10:46:43.516Z,12.31
2023-02-17T10:49:31.469Z,12.26
2023-02-17T10:52:06.349Z,12.25
2023-02-17T10:54:38.656Z,12.41
2023-02-17T10:57:11.249Z,12.39
2023-02-17T10:59:44.332Z,12.48
2023-02-17T11:02:33.487Z,12.47
2023-02-17T11:05:00.572Z,12.54
2023-02-17T11:07:34.848Z,12.46
2023-02-17T11:10:04.821Z,12.40
2023-02-17T11:12:41.521Z,12.45
2023-02-17T11:15:20.651Z,12.51
2023-02-17T11:17:48.091Z,12.67
2023-02-17T11:20:15.301Z,12.59
2023-02-17T11:22:45.882Z,12.61
2023-02-17T11:25:26.476Z,12.83
2023-02-17T11:27:56.650Z,13.01
2023-02-17T11:30:24.962Z,13.09
2023-02-17T11:32:52.079Z,13.23
2023-02-17T11:35:32.894Z,13.46
2023-02-17T11:38:10.542Z,13.60
2023-02-17T11:40:37.677Z,13.58
2023-02-17T11:43:06.062Z,13.33
2023-02-17T11:45:43.021Z,13.23
2023-02-17T11:48:40.042Z,13.36
2023-02-17T11:51:40.700Z,13.40
2023-02-17T11:54:19.212Z,13.49
2023-02-17T11:57:30.779Z,13.74
2023-02-17T12:00:19.107Z,13.82
2023-02-17T12:03:09.914Z,13.86
2023-02-17T12:06:18.509Z,13.73
2023-02-17T12:08:57.474Z,13.69
2023-02-17T12:11:37.550Z,13.66
2023-02-17T12:14:42.019Z,13.64
2023-02-17T12:17:37.975Z,13.59
2023-02-17T12:20:28.136Z,13.35
2023-02-17T12:23:10.568Z,13.59
2023-02-17T12:25:48.863Z,13.36
2023-02-17T12:28:24.776Z,13.39
2023-02-17T12:31:13.494Z,13.14
2023-02-17T12:34:20.185Z,13.10
2023-02-17T12:36:50.446Z,13.31
2023-02-17T12:39:43.078Z,13.60
2023-02-17T12:42:25.075Z,13.63
2023-02-17T12:45:03.553Z,13.55
2023-02-17T12:47:53.741Z,13.60
2023-02-17T12:51:03.157Z,13.76
2023-02-17T12:53:48.142Z,13.81
2023-02-17T12:56:28.482Z,13.70
2023-02-17T12:58:59.352Z,13.74
2023-02-17T13:01:31.394Z,13.78
2023-02-17T13:04:02.704Z,14.13
2023-02-17T13:06:29.554Z,14.04
2023-02-17T13:09:01.796Z,13.91
2023-02-17T13:11:34.987Z,14.10
2023-02-17T13:14:29.360Z,14.22
2023-02-17T13:16:56.202Z,14.32
2023-02-17T13:19:31.801Z,14.28
2023-02-17T13:22:02.368Z,14.14
2023-02-17T13:24:50.841Z,14.11
2023-02-17T13:27:22.582Z,14.05
2023-02-17T13:30:22.015Z,14.20
2023-02-17T13:33:04.296Z,13.89
2023-02-17T13:35:34.929Z,13.95
2023-02-17T13:38:01.775Z,13.88
2023-02-17T13:40:41.229Z,13.98
2023-02-17T13:43:14.988Z,13.94
2023-02-17T13:46:15.683Z,13.94
2023-02-17T13:48:42.632Z,13.76
2023-02-17T13:51:25.649Z,13.86
2023-02-17T13:53:53.882Z,13.97
2023-02-17T13:56:31.139Z,13.84
2023-02-17T13:59:18.037Z,13.88
2023-02-17T14:01:46.583Z,14.03
2023-02-17T14:04:22.505Z,13.94
2023-02-17T14:06:50.132Z,13.79
2023-02-17T14:09:30.720Z,13.84
2023-02-17T14:11:59.092Z,13.75
2023-02-17T14:14:35.050Z,13.48
2023-02-17T14:17:05.158Z,13.81
2023-02-17T14:19:47.335Z,13.62
2023-02-17T14:22:35.328Z,13.74
2023-02-17T14:25:13.109Z,13.55
2023-02-17T14:27:45.091Z,13.36
2023-02-17T14:30:36.135Z,13.36
2023-02-17T14:33:20.076Z,13.02
2023-02-17T14:36:02.939Z,13.14
2023-02-17T14:38:35.296Z,13.14
2023-02-17T14:41:02.266Z,13.00
2023-02-17T14:43:29.881Z,13.01
2023-02-17T14:45:56.745Z,12.95
2023-02-17T14:48:27.383Z,13.00
2023-02-17T14:50:57.277Z,12.98
2023-02-17T14:53:32.961Z,12.96
2023-02-17T14:56:26.625Z,12.86
2023-02-17T14:58:54.046Z,12.83
2023-02-17T15:01:23.533Z,12.79
2023-02-17T15:03:50.597Z,12.79
2023-02-17T15:06:20.989Z,12.91
2023-02-17T15:08:51.649Z,12.70
2023-02-17T15:11:30.429Z,12.65
2023-02-17T15:13:57.792Z,12.52
2023-02-17T15:16:24.757Z,12.42
2023-02-17T15:18:51.792Z,12.45
2023-02-17T15:21:24.340Z,12.23
2023-02-17T15:23:51.626Z,12.14
2023-02-17T15:26:21.538Z,12.02
2023-02-17T15:28:48.598Z,11.84
2023-02-17T15:31:16.769Z,11.80
2023-02-17T15:33:47.645Z,11.70
2023-02-17T15:36:17.725Z,11.52
2023-02-17T15:38:44.479Z,11.48
2023-02-17T15:41:18.452Z,11.42
2023-02-17T15:43:46.974Z,11.32
2023-02-17T15:46:16.844Z,11.20
2023-02-17T15:48:52.303Z,11.05
2023-02-17T15:51:22.546Z,10.90
2023-02-17T15:53:49.565Z,10.82
2023-02-17T15:56:20.613Z,10.71
2023-02-17T15:58:49.054Z,10.60
2023-02-17T16:01:34.715Z,10.45
2023-02-17T16:04:01.810Z,10.28
2023-02-17T16:06:29.535Z,10.21
2023-02-17T16:08:58.812Z,10.12
2023-02-17T16:11:32.713Z,10.00
2023-02-17T16:14:01.230Z,9.88
2023-02-17T16:16:36.162Z,9.73
2023-02-17T16:19:08.829Z,9.68
2023-02-17T16:21:35.913Z,9.54
2023-02-17T16:24:02.678Z,9.42
2023-02-17T16:26:34.493Z,9.43
2023-02-17T16:29:02.973Z,9.31
2023-02-17T16:31:32.592Z,9.34
2023-02-17T16:34:00.546Z,9.25
2023-02-17T16:36:32.542Z,9.11
2023-02-17T16:39:02.708Z,9.05
2023-02-17T16:41:29.640Z,8.96
2023-02-17T16:43:56.478Z,8.85
2023-02-17T16:46:29.768Z,8.64
2023-02-17T16:48:58.019Z,8.68
2023-02-17T16:51:25.142Z,8.55
2023-02-17T16:53:52.590Z,8.47
2023-02-17T16:56:34.666Z,8.43
2023-02-17T16:59:01.633Z,8.29
2023-02-17T17:01:28.590Z,8.21
2023-02-17T17:03:55.490Z,8.12
2023-02-17T17:06:25.922Z,8.05
2023-02-17T17:08:53.667Z,7.94
2023-02-17T17:11:23.834Z,7.81
2023-02-17T17:13:50.838Z,7.83
2023-02-17T17:16:24.863Z,7.77
2023-02-17T17:18:51.813Z,7.70
2023-02-17T17:21:19.596Z,7.60
2023-02-17T17:23:47.548Z,7.54
2023-02-17T17:26:18.897Z,7.49
2023-02-17T17:28:48.317Z,7.34
2023-02-17T17:31:15.430Z,7.24
2023-02-17T17:33:42.513Z,7.19
2023-02-17T17:36:24.405Z,7.15
2023-02-17T17:38:53.454Z,7.11
2023-02-17T17:41:20.875Z,7.06
2023-02-17T17:43:49.026Z,7.08
2023-02-17T17:46:19.320Z,7.10
2023-02-17T17:48:47.410Z,7.07
2023-02-17T17:51:17.422Z,6.99
2023-02-17T17:53:44.687Z,6.98
2023-02-17T17:56:23.815Z,6.88
2023-02-17T17:58:51.290Z,6.90
2023-02-17T18:01:20.343Z,6.78
2023-02-17T18:03:48.387Z,6.76
2023-02-17T18:06:21.635Z,6.68
2023-02-17T18:08:50.532Z,6.61
2023-02-17T18:11:19.895Z,6.42
2023-02-17T18:13:49.814Z,6.47
2023-02-17T18:16:17.139Z,6.34
2023-02-17T18:18:44.069Z,6.25
2023-02-17T18:21:11.067Z,6.18
2023-02-17T18:23:38.057Z,6.16
2023-02-17T18:26:05.302Z,6.04
2023-02-17T18:28:33.892Z,5.97
2023-02-17T18:31:07.730Z,5.84
2023-02-17T18:33:34.699Z,5.84
2023-02-17T18:36:23.223Z,5.80
2023-02-17T18:38:50.617Z,5.65
2023-02-17T18:41:19.267Z,5.56
2023-02-17T18:43:46.470Z,5.50
2023-02-17T18:46:13.597Z,5.42
2023-02-17T18:48:40.432Z,5.46
2023-02-17T18:51:13.331Z,5.34
2023-02-17T18:53:41.288Z,5.27
2023-02-17T18:56:20.110Z,5.28
2023-02-17T18:58:48.281Z,5.24
2023-02-17T19:01:22.435Z,5.21
2023-02-17T19:03:49.490Z,5.11
2023-02-17T19:06:20.457Z,5.21
2023-02-17T19:08:47.990Z,5.11
2023-02-17T19:11:18.003Z,5.13
2023-02-17T19:13:45.258Z,4.96
2023-02-17T19:16:15.273Z,5.13
2023-02-17T19:18:43.570Z,5.08
2023-02-17T19:21:11.023Z,5.00
2023-02-17T19:23:38.910Z,5.01
2023-02-17T19:26:08.001Z,4.96
2023-02-17T19:28:36.680Z,4.88
2023-02-17T19:31:09.472Z,4.97
2023-02-17T19:33:37.082Z,5.02
2023-02-17T19:36:09.074Z,4.87
2023-02-17T19:38:37.085Z,4.97
2023-02-17T19:41:05.648Z,4.95
2023-02-17T19:43:32.740Z,4.90
2023-02-17T19:45:59.720Z,4.84
2023-02-17T19:48:26.772Z,4.75
2023-02-17T19:51:00.719Z,4.64
2023-02-17T19:53:27.971Z,4.77
2023-02-17T19:55:54.777Z,4.80
2023-02-17T19:58:21.608Z,4.81
2023-02-17T20:00:48.433Z,4.78
2023-02-17T20:03:15.236Z,4.73
2023-02-17T20:05:42.655Z,4.63
2023-02-17T20:08:09.516Z,4.73
2023-02-17T20:10:39.446Z,4.86
2023-02-17T20:13:06.671Z,4.93
2023-02-17T20:15:33.560Z,4.95
2023-02-17T20:18:00.424Z,5.07
2023-02-17T20:20:27.275Z,5.03
2023-02-17T20:22:54.079Z,5.11
2023-02-17T20:25:21.019Z,5.11
2023-02-17T20:27:47.844Z,5.21
2023-02-17T20:30:15.049Z,5.25
2023-02-17T20:32:41.890Z,5.18
2023-02-17T20:35:11.174Z,5.16
2023-02-17T20:37:38.086Z,5.24
2023-02-17T20:40:05.462Z,5.34
2023-02-17T20:42:32.494Z,5.46
2023-02-17T20:44:59.326Z,5.48
2023-02-17T20:47:26.117Z,5.53
2023-02-17T20:49:53.021Z,5.42
2023-02-17T20:52:19.818Z,5.33
2023-02-17T20:54:46.616Z,5.35
2023-02-17T20:57:15.677Z,5.24
2023-02-17T20:59:42.814Z,5.19
2023-02-17T21:02:11.171Z,5.17
2023-02-17T21:04:38.064Z,5.12
2023-02-17T21:07:04.917Z,5.19
2023-02-17T21:09:32.002Z,5.19
2023-02-17T21:11:58.878Z,5.36
2023-02-17T21:14:25.662Z,5.40
2023-02-17T21:16:52.566Z,5.40
2023-02-17T21:19:19.607Z,5.46
2023-02-17T21:21:46.800Z,5.54
2023-02-17T21:24:14.003Z,5.52
2023-02-17T21:26:41.162Z,5.49
2023-02-17T21:29:08.451Z,5.41
2023-02-17T21:31:37.089Z,5.32
2023-02-17T21:34:04.851Z,5.00
2023-02-17T21:36:31.676Z,5.01
2023-02-17T21:38:59.124Z,4.90
2023-02-17T21:41:27.806Z,4.86
2023-02-17T21:44:13.657Z,4.82
2023-02-17T21:46:43.902Z,4.71
2023-02-17T21:49:11.660Z,4.59
2023-02-17T21:51:39.834Z,4.59
2023-02-17T21:54:07.278Z,4.54
2023-02-17T21:56:34.305Z,4.47
2023-02-17T21:59:01.059Z,4.46
2023-02-17T22:01:28.664Z,4.52
2023-02-17T22:03:57.657Z,4.45
2023-02-17T22:06:27.781Z,4.44
2023-02-17T22:08:55.288Z,4.39
2023-02-17T22:11:26.762Z,4.30
2023-02-17T22:14:01.465Z,4.29
2023-02-17T22:16:33.836Z,4.26
2023-02-17T22:19:01.441Z,4.25
2023-02-17T22:21:28.980Z,4.16
2023-02-17T22:23:57.924Z,4.07
2023-02-17T22:26:26.092Z,4.07
2023-02-17T22:28:54.285Z,4.09
2023-02-17T22:31:24.927Z,4.07
2023-02-17T22:33:51.861Z,4.07
2023-02-17T22:36:25.194Z,4.09
2023-02-17T22:38:52.637Z,4.07
2023-02-17T22:41:23.041Z,4.15
2023-02-17T22:43:50.847Z,4.27
2023-02-17T22:46:19.981Z,4.17
2023-02-17T22:48:49.134Z,4.35
2023-02-17T22:51:19.495Z,4.39
2023-02-17T22:53:46.751Z,4.33
2023-02-17T22:56:13.969Z,4.44
2023-02-17T22:58:40.975Z,4.46
2023-02-17T23:01:12.698Z,4.56
2023-02-17T23:03:39.997Z,4.65
2023-02-17T23:06:10.469Z,4.65
2023-02-17T23:08:37.750Z,4.69
2023-02-17T23:11:06.389Z,4.72
2023-02-17T23:13:33.506Z,4.70
2023-02-17T23:16:00.354Z,4.51
2023-02-17T23:18:30.983Z,4.52
2023-02-17T23:20:57.989Z,4.45
2023-02-17T23:23:24.899Z,4.44
2023-02-17T23:25:54.454Z,4.44
2023-02-17T23:28:23.674Z,4.52
2023-02-17T23:30:50.672Z,4.65
2023-02-17T23:33:19.842Z,4.66
2023-02-17T23:35:47.782Z,4.65
2023-02-17T23:38:17.374Z,4.59
2023-02-17T23:40:51.169Z,4.56
2023-02-17T23:43:19.559Z,4.68
2023-02-17T23:45:46.577Z,4.81
2023-02-17T23:48:13.609Z,4.76
2023-02-17T23:50:40.865Z,4.78
2023-02-17T23:53:08.686Z,4.84
2023-02-17T23:55:35.643Z,4.81
2023-02-17T23:58:02.507Z,4.84
